sensor_id;sensor_type;location;lat;lon;timestamp;P1;durP1;ratioP1;P2;durP2;ratioP2
22939;SDS011;11636;52.086;5.090;2024-02-15T00:00:30;15.63;;;7.15;;
22939;SDS011;11636;52.086;5.090;2024-02-15T00:02:58;10.82;;;6.50;;
22939;SDS011;11636;52.086;5.090;2024-02-15T00:05:31;12.82;;;6.28;;
22939;SDS011;11636;52.086;5.090;2024-02-15T00:07:58;10.93;;;6.22;;
22939;SDS011;11636;52.086;5.090;2024-02-15T00:10:32;12.27;;;5.88;;
22939;SDS011;11636;52.086;5.090;2024-02-15T00:13:05;11.48;;;6.10;;
22939;SDS011;11636;52.086;5.090;2024-02-15T00:15:32;11.18;;;6.15;;
22939;SDS011;11636;52.086;5.090;2024-02-15T00:18:09;10.80;;;6.00;;
22939;SDS011;11636;52.086;5.090;2024-02-15T00:20:36;15.68;;;6.20;;
22939;SDS011;11636;52.086;5.090;2024-02-15T00:23:11;12.32;;;5.72;;
22939;SDS011;11636;52.086;5.090;2024-02-15T00:25:38;11.57;;;5.95;;
22939;SDS011;11636;52.086;5.090;2024-02-15T00:28:12;12.15;;;5.63;;
22939;SDS011;11636;52.086;5.090;2024-02-15T00:30:39;13.10;;;6.13;;
22939;SDS011;11636;52.086;5.090;2024-02-15T00:33:13;12.90;;;6.10;;
22939;SDS011;11636;52.086;5.090;2024-02-15T00:35:40;13.18;;;6.10;;
22939;SDS011;11636;52.086;5.090;2024-02-15T00:38:14;10.75;;;5.15;;
22939;SDS011;11636;52.086;5.090;2024-02-15T00:40:41;6.75;;;4.47;;
22939;SDS011;11636;52.086;5.090;2024-02-15T00:43:09;6.60;;;4.32;;
22939;SDS011;11636;52.086;5.090;2024-02-15T00:45:42;6.10;;;3.63;;
22939;SDS011;11636;52.086;5.090;2024-02-15T00:48:15;9.65;;;4.55;;
22939;SDS011;11636;52.086;5.090;2024-02-15T00:50:48;6.72;;;3.65;;
22939;SDS011;11636;52.086;5.090;2024-02-15T00:53:21;6.45;;;3.47;;
22939;SDS011;11636;52.086;5.090;2024-02-15T00:55:48;4.65;;;2.83;;
22939;SDS011;11636;52.086;5.090;2024-02-15T00:58:15;11.02;;;4.57;;
22939;SDS011;11636;52.086;5.090;2024-02-15T01:00:48;7.57;;;4.22;;
22939;SDS011;11636;52.086;5.090;2024-02-15T01:03:15;8.63;;;4.45;;
22939;SDS011;11636;52.086;5.090;2024-02-15T01:05:49;11.25;;;5.60;;
22939;SDS011;11636;52.086;5.090;2024-02-15T01:08:18;14.73;;;6.55;;
22939;SDS011;11636;52.086;5.090;2024-02-15T01:10:45;12.57;;;5.82;;
22939;SDS011;11636;52.086;5.090;2024-02-15T01:13:18;14.05;;;6.15;;
22939;SDS011;11636;52.086;5.090;2024-02-15T01:15:45;13.30;;;6.68;;
22939;SDS011;11636;52.086;5.090;2024-02-15T01:18:18;8.32;;;5.53;;
22939;SDS011;11636;52.086;5.090;2024-02-15T01:20:52;11.88;;;7.32;;
22939;SDS011;11636;52.086;5.090;2024-02-15T01:23:19;11.05;;;6.18;;
22939;SDS011;11636;52.086;5.090;2024-02-15T01:25:53;10.68;;;6.00;;
22939;SDS011;11636;52.086;5.090;2024-02-15T01:28:26;6.53;;;4.68;;
22939;SDS011;11636;52.086;5.090;2024-02-15T01:30:53;9.13;;;5.93;;
22939;SDS011;11636;52.086;5.090;2024-02-15T01:33:27;6.45;;;4.63;;
22939;SDS011;11636;52.086;5.090;2024-02-15T01:35:54;9.32;;;6.28;;
22939;SDS011;11636;52.086;5.090;2024-02-15T01:38:29;8.68;;;5.82;;
22939;SDS011;11636;52.086;5.090;2024-02-15T01:41:02;8.25;;;5.60;;
22939;SDS011;11636;52.086;5.090;2024-02-15T01:43:36;8.15;;;5.95;;
22939;SDS011;11636;52.086;5.090;2024-02-15T01:46:07;11.77;;;6.97;;
22939;SDS011;11636;52.086;5.090;2024-02-15T01:48:42;13.73;;;8.63;;
22939;SDS011;11636;52.086;5.090;2024-02-15T01:51:10;12.13;;;8.60;;
22939;SDS011;11636;52.086;5.090;2024-02-15T01:53:39;12.50;;;8.90;;
22939;SDS011;11636;52.086;5.090;2024-02-15T01:56:14;11.23;;;7.70;;
22939;SDS011;11636;52.086;5.090;2024-02-15T01:58:43;10.93;;;7.65;;
22939;SDS011;11636;52.086;5.090;2024-02-15T02:01:18;11.82;;;8.93;;
22939;SDS011;11636;52.086;5.090;2024-02-15T02:03:47;11.30;;;7.93;;
22939;SDS011;11636;52.086;5.090;2024-02-15T02:06:14;12.52;;;7.55;;
22939;SDS011;11636;52.086;5.090;2024-02-15T02:08:48;10.82;;;7.68;;
22939;SDS011;11636;52.086;5.090;2024-02-15T02:11:15;12.65;;;7.70;;
22939;SDS011;11636;52.086;5.090;2024-02-15T02:13:49;14.27;;;9.27;;
22939;SDS011;11636;52.086;5.090;2024-02-15T02:16:28;8.63;;;6.93;;
22939;SDS011;11636;52.086;5.090;2024-02-15T02:19:01;13.80;;;8.48;;
22939;SDS011;11636;52.086;5.090;2024-02-15T02:21:29;10.25;;;7.63;;
22939;SDS011;11636;52.086;5.090;2024-02-15T02:23:56;10.90;;;7.43;;
22939;SDS011;11636;52.086;5.090;2024-02-15T02:26:30;12.10;;;8.00;;
22939;SDS011;11636;52.086;5.090;2024-02-15T02:28:57;19.13;;;9.70;;
22939;SDS011;11636;52.086;5.090;2024-02-15T02:31:33;11.55;;;8.02;;
22939;SDS011;11636;52.086;5.090;2024-02-15T02:34:03;12.43;;;8.88;;
22939;SDS011;11636;52.086;5.090;2024-02-15T02:36:37;13.77;;;9.00;;
22939;SDS011;11636;52.086;5.090;2024-02-15T02:39:04;13.68;;;9.88;;
22939;SDS011;11636;52.086;5.090;2024-02-15T02:41:37;13.88;;;9.00;;
22939;SDS011;11636;52.086;5.090;2024-02-15T02:44:04;13.77;;;9.40;;
22939;SDS011;11636;52.086;5.090;2024-02-15T02:46:37;13.48;;;9.10;;
22939;SDS011;11636;52.086;5.090;2024-02-15T02:49:04;11.32;;;7.72;;
22939;SDS011;11636;52.086;5.090;2024-02-15T02:51:37;21.35;;;11.68;;
22939;SDS011;11636;52.086;5.090;2024-02-15T02:54:04;13.85;;;9.32;;
22939;SDS011;11636;52.086;5.090;2024-02-15T02:56:39;18.55;;;11.00;;
22939;SDS011;11636;52.086;5.090;2024-02-15T02:59:12;18.60;;;9.95;;
22939;SDS011;11636;52.086;5.090;2024-02-15T03:01:46;14.15;;;9.13;;
22939;SDS011;11636;52.086;5.090;2024-02-15T03:04:16;9.55;;;7.80;;
22939;SDS011;11636;52.086;5.090;2024-02-15T03:06:50;11.75;;;7.60;;
22939;SDS011;11636;52.086;5.090;2024-02-15T03:09:25;11.60;;;7.10;;
22939;SDS011;11636;52.086;5.090;2024-02-15T03:11:55;12.63;;;7.95;;
22939;SDS011;11636;52.086;5.090;2024-02-15T03:14:29;13.52;;;7.35;;
22939;SDS011;11636;52.086;5.090;2024-02-15T03:17:04;10.05;;;6.47;;
22939;SDS011;11636;52.086;5.090;2024-02-15T03:19:32;16.52;;;8.25;;
22939;SDS011;11636;52.086;5.090;2024-02-15T03:21:59;11.38;;;7.03;;
22939;SDS011;11636;52.086;5.090;2024-02-15T03:24:32;17.60;;;8.82;;
22939;SDS011;11636;52.086;5.090;2024-02-15T03:27:12;15.18;;;8.13;;
22939;SDS011;11636;52.086;5.090;2024-02-15T03:29:45;12.50;;;6.95;;
22939;SDS011;11636;52.086;5.090;2024-02-15T03:32:13;13.32;;;6.30;;
22939;SDS011;11636;52.086;5.090;2024-02-15T03:34:40;8.40;;;5.93;;
22939;SDS011;11636;52.086;5.090;2024-02-15T03:37:14;9.60;;;6.65;;
22939;SDS011;11636;52.086;5.090;2024-02-15T03:39:41;9.00;;;5.95;;
22939;SDS011;11636;52.086;5.090;2024-02-15T03:42:15;9.27;;;5.60;;
22939;SDS011;11636;52.086;5.090;2024-02-15T03:44:42;10.88;;;6.28;;
22939;SDS011;11636;52.086;5.090;2024-02-15T03:47:15;14.32;;;6.82;;
22939;SDS011;11636;52.086;5.090;2024-02-15T03:49:42;9.52;;;6.25;;
22939;SDS011;11636;52.086;5.090;2024-02-15T03:52:09;11.50;;;6.15;;
22939;SDS011;11636;52.086;5.090;2024-02-15T03:54:43;8.43;;;5.30;;
22939;SDS011;11636;52.086;5.090;2024-02-15T03:57:16;10.50;;;5.97;;
22939;SDS011;11636;52.086;5.090;2024-02-15T03:59:43;15.65;;;7.38;;
22939;SDS011;11636;52.086;5.090;2024-02-15T04:02:26;16.60;;;7.07;;
22939;SDS011;11636;52.086;5.090;2024-02-15T04:04:59;8.48;;;5.40;;
22939;SDS011;11636;52.086;5.090;2024-02-15T04:07:34;13.75;;;6.72;;
22939;SDS011;11636;52.086;5.090;2024-02-15T04:10:07;11.10;;;6.28;;
22939;SDS011;11636;52.086;5.090;2024-02-15T04:12:35;14.35;;;6.63;;
22939;SDS011;11636;52.086;5.090;2024-02-15T04:15:09;11.10;;;5.88;;
22939;SDS011;11636;52.086;5.090;2024-02-15T04:17:43;10.82;;;5.68;;
22939;SDS011;11636;52.086;5.090;2024-02-15T04:20:17;12.88;;;6.55;;
22939;SDS011;11636;52.086;5.090;2024-02-15T04:22:44;14.10;;;7.00;;
22939;SDS011;11636;52.086;5.090;2024-02-15T04:25:19;13.75;;;6.55;;
22939;SDS011;11636;52.086;5.090;2024-02-15T04:27:54;13.77;;;7.38;;
22939;SDS011;11636;52.086;5.090;2024-02-15T04:30:27;12.10;;;7.03;;
22939;SDS011;11636;52.086;5.090;2024-02-15T04:32:54;13.45;;;6.90;;
22939;SDS011;11636;52.086;5.090;2024-02-15T04:35:21;13.98;;;6.38;;
22939;SDS011;11636;52.086;5.090;2024-02-15T04:37:54;16.88;;;7.15;;
22939;SDS011;11636;52.086;5.090;2024-02-15T04:40:21;13.25;;;6.40;;
22939;SDS011;11636;52.086;5.090;2024-02-15T04:42:54;12.52;;;7.15;;
22939;SDS011;11636;52.086;5.090;2024-02-15T04:45:21;11.52;;;6.50;;
22939;SDS011;11636;52.086;5.090;2024-02-15T04:47:49;11.38;;;6.30;;
22939;SDS011;11636;52.086;5.090;2024-02-15T04:50:24;13.85;;;7.07;;
22939;SDS011;11636;52.086;5.090;2024-02-15T04:52:52;10.95;;;6.82;;
22939;SDS011;11636;52.086;5.090;2024-02-15T04:55:19;13.23;;;7.35;;
22939;SDS011;11636;52.086;5.090;2024-02-15T04:57:52;16.38;;;8.15;;
22939;SDS011;11636;52.086;5.090;2024-02-15T05:00:22;12.52;;;7.18;;
22939;SDS011;11636;52.086;5.090;2024-02-15T05:02:55;11.32;;;6.50;;
22939;SDS011;11636;52.086;5.090;2024-02-15T05:05:22;10.63;;;6.70;;
22939;SDS011;11636;52.086;5.090;2024-02-15T05:07:51;15.75;;;8.43;;
22939;SDS011;11636;52.086;5.090;2024-02-15T05:10:24;14.63;;;8.63;;
22939;SDS011;11636;52.086;5.090;2024-02-15T05:12:57;18.95;;;9.20;;
22939;SDS011;11636;52.086;5.090;2024-02-15T05:15:27;19.02;;;9.50;;
22939;SDS011;11636;52.086;5.090;2024-02-15T05:18:00;17.35;;;10.10;;
22939;SDS011;11636;52.086;5.090;2024-02-15T05:20:33;17.17;;;8.80;;
22939;SDS011;11636;52.086;5.090;2024-02-15T05:23:06;16.67;;;9.20;;
22939;SDS011;11636;52.086;5.090;2024-02-15T05:25:33;15.77;;;10.23;;
22939;SDS011;11636;52.086;5.090;2024-02-15T05:28:07;15.55;;;8.38;;
22939;SDS011;11636;52.086;5.090;2024-02-15T05:30:35;13.65;;;8.63;;
22939;SDS011;11636;52.086;5.090;2024-02-15T05:33:10;9.50;;;7.18;;
22939;SDS011;11636;52.086;5.090;2024-02-15T05:35:38;11.65;;;7.78;;
22939;SDS011;11636;52.086;5.090;2024-02-15T05:38:13;10.80;;;7.47;;
22939;SDS011;11636;52.086;5.090;2024-02-15T05:40:43;11.40;;;7.72;;
22939;SDS011;11636;52.086;5.090;2024-02-15T05:43:16;18.95;;;11.88;;
22939;SDS011;11636;52.086;5.090;2024-02-15T05:45:43;17.75;;;10.23;;
22939;SDS011;11636;52.086;5.090;2024-02-15T05:48:18;20.05;;;11.73;;
22939;SDS011;11636;52.086;5.090;2024-02-15T05:50:45;17.30;;;10.95;;
22939;SDS011;11636;52.086;5.090;2024-02-15T05:53:13;21.05;;;11.15;;
22939;SDS011;11636;52.086;5.090;2024-02-15T05:55:46;17.50;;;10.80;;
22939;SDS011;11636;52.086;5.090;2024-02-15T05:58:16;13.07;;;10.23;;
22939;SDS011;11636;52.086;5.090;2024-02-15T06:00:43;19.45;;;11.10;;
22939;SDS011;11636;52.086;5.090;2024-02-15T06:03:20;19.88;;;11.15;;
22939;SDS011;11636;52.086;5.090;2024-02-15T06:05:52;17.83;;;10.75;;
22939;SDS011;11636;52.086;5.090;2024-02-15T06:08:31;13.45;;;9.43;;
22939;SDS011;11636;52.086;5.090;2024-02-15T06:10:58;12.82;;;8.63;;
22939;SDS011;11636;52.086;5.090;2024-02-15T06:13:31;12.13;;;8.60;;
22939;SDS011;11636;52.086;5.090;2024-02-15T06:16:11;18.15;;;11.68;;
22939;SDS011;11636;52.086;5.090;2024-02-15T06:18:38;13.60;;;9.43;;
22939;SDS011;11636;52.086;5.090;2024-02-15T06:21:12;19.25;;;10.40;;
22939;SDS011;11636;52.086;5.090;2024-02-15T06:23:38;14.38;;;10.07;;
22939;SDS011;11636;52.086;5.090;2024-02-15T06:26:12;15.27;;;10.50;;
22939;SDS011;11636;52.086;5.090;2024-02-15T06:28:38;16.15;;;10.02;;
22939;SDS011;11636;52.086;5.090;2024-02-15T06:31:31;12.05;;;8.75;;
22939;SDS011;11636;52.086;5.090;2024-02-15T06:34:16;14.85;;;10.40;;
22939;SDS011;11636;52.086;5.090;2024-02-15T06:37:08;12.32;;;8.35;;
22939;SDS011;11636;52.086;5.090;2024-02-15T06:39:53;11.85;;;8.30;;
22939;SDS011;11636;52.086;5.090;2024-02-15T06:42:27;14.98;;;10.68;;
22939;SDS011;11636;52.086;5.090;2024-02-15T06:44:57;12.82;;;9.50;;
22939;SDS011;11636;52.086;5.090;2024-02-15T06:47:24;13.23;;;9.70;;
22939;SDS011;11636;52.086;5.090;2024-02-15T06:49:58;19.33;;;12.20;;
22939;SDS011;11636;52.086;5.090;2024-02-15T06:52:24;14.40;;;10.70;;
22939;SDS011;11636;52.086;5.090;2024-02-15T06:54:58;13.48;;;9.80;;
22939;SDS011;11636;52.086;5.090;2024-02-15T06:57:31;13.57;;;9.52;;
22939;SDS011;11636;52.086;5.090;2024-02-15T07:00:04;11.77;;;8.93;;
22939;SDS011;11636;52.086;5.090;2024-02-15T07:02:42;12.32;;;8.82;;
22939;SDS011;11636;52.086;5.090;2024-02-15T07:05:17;13.68;;;9.85;;
22939;SDS011;11636;52.086;5.090;2024-02-15T07:07:50;11.77;;;8.70;;
22939;SDS011;11636;52.086;5.090;2024-02-15T07:10:16;11.38;;;7.90;;
22939;SDS011;11636;52.086;5.090;2024-02-15T07:12:43;13.50;;;9.50;;
22939;SDS011;11636;52.086;5.090;2024-02-15T07:15:17;15.23;;;9.32;;
22939;SDS011;11636;52.086;5.090;2024-02-15T07:17:50;10.20;;;7.75;;
22939;SDS011;11636;52.086;5.090;2024-02-15T07:20:21;14.10;;;9.43;;
22939;SDS011;11636;52.086;5.090;2024-02-15T07:22:56;14.32;;;9.07;;
22939;SDS011;11636;52.086;5.090;2024-02-15T07:25:31;12.18;;;8.80;;
22939;SDS011;11636;52.086;5.090;2024-02-15T07:28:04;10.18;;;8.00;;
22939;SDS011;11636;52.086;5.090;2024-02-15T07:30:38;10.07;;;7.30;;
22939;SDS011;11636;52.086;5.090;2024-02-15T07:33:05;10.93;;;8.38;;
22939;SDS011;11636;52.086;5.090;2024-02-15T07:35:33;9.20;;;7.13;;
22939;SDS011;11636;52.086;5.090;2024-02-15T07:38:08;9.60;;;6.57;;
22939;SDS011;11636;52.086;5.090;2024-02-15T07:40:36;8.77;;;6.85;;
22939;SDS011;11636;52.086;5.090;2024-02-15T07:43:12;12.60;;;6.80;;
22939;SDS011;11636;52.086;5.090;2024-02-15T07:45:39;9.02;;;6.43;;
22939;SDS011;11636;52.086;5.090;2024-02-15T07:48:14;8.88;;;6.47;;
22939;SDS011;11636;52.086;5.090;2024-02-15T07:50:41;10.13;;;7.38;;
22939;SDS011;11636;52.086;5.090;2024-02-15T07:53:16;10.50;;;6.95;;
22939;SDS011;11636;52.086;5.090;2024-02-15T07:55:42;10.70;;;7.80;;
22939;SDS011;11636;52.086;5.090;2024-02-15T07:58:10;9.38;;;6.50;;
22939;SDS011;11636;52.086;5.090;2024-02-15T08:00:45;10.70;;;7.15;;
22939;SDS011;11636;52.086;5.090;2024-02-15T08:03:12;8.75;;;7.13;;
22939;SDS011;11636;52.086;5.090;2024-02-15T08:05:47;7.75;;;5.57;;
22939;SDS011;11636;52.086;5.090;2024-02-15T08:08:14;9.07;;;6.15;;
22939;SDS011;11636;52.086;5.090;2024-02-15T08:10:48;11.10;;;6.65;;
22939;SDS011;11636;52.086;5.090;2024-02-15T08:13:17;9.57;;;6.80;;
22939;SDS011;11636;52.086;5.090;2024-02-15T08:15:55;10.38;;;6.63;;
22939;SDS011;11636;52.086;5.090;2024-02-15T08:18:28;11.95;;;6.97;;
22939;SDS011;11636;52.086;5.090;2024-02-15T08:21:02;10.30;;;6.25;;
22939;SDS011;11636;52.086;5.090;2024-02-15T08:23:37;11.18;;;6.25;;
22939;SDS011;11636;52.086;5.090;2024-02-15T08:26:04;10.35;;;6.40;;
22939;SDS011;11636;52.086;5.090;2024-02-15T08:28:38;8.02;;;6.00;;
22939;SDS011;11636;52.086;5.090;2024-02-15T08:31:05;9.52;;;6.15;;
22939;SDS011;11636;52.086;5.090;2024-02-15T08:33:40;8.45;;;5.22;;
22939;SDS011;11636;52.086;5.090;2024-02-15T08:36:09;8.55;;;5.93;;
22939;SDS011;11636;52.086;5.090;2024-02-15T08:38:43;8.80;;;5.32;;
22939;SDS011;11636;52.086;5.090;2024-02-15T08:41:11;8.57;;;5.70;;
22939;SDS011;11636;52.086;5.090;2024-02-15T08:43:38;9.57;;;5.50;;
22939;SDS011;11636;52.086;5.090;2024-02-15T08:46:14;7.80;;;5.20;;
22939;SDS011;11636;52.086;5.090;2024-02-15T08:48:41;6.63;;;4.07;;
22939;SDS011;11636;52.086;5.090;2024-02-15T08:51:15;5.80;;;3.90;;
22939;SDS011;11636;52.086;5.090;2024-02-15T08:53:43;9.10;;;4.82;;
22939;SDS011;11636;52.086;5.090;2024-02-15T08:56:16;6.80;;;4.68;;
22939;SDS011;11636;52.086;5.090;2024-02-15T08:58:43;6.13;;;3.88;;
22939;SDS011;11636;52.086;5.090;2024-02-15T09:01:16;6.95;;;3.60;;
22939;SDS011;11636;52.086;5.090;2024-02-15T09:03:43;7.50;;;4.57;;
22939;SDS011;11636;52.086;5.090;2024-02-15T09:06:11;8.60;;;5.10;;
22939;SDS011;11636;52.086;5.090;2024-02-15T09:08:45;10.50;;;5.63;;
22939;SDS011;11636;52.086;5.090;2024-02-15T09:11:12;7.57;;;4.55;;
22939;SDS011;11636;52.086;5.090;2024-02-15T09:13:46;6.93;;;4.43;;
22939;SDS011;11636;52.086;5.090;2024-02-15T09:16:15;8.07;;;4.40;;
22939;SDS011;11636;52.086;5.090;2024-02-15T09:18:49;8.63;;;5.07;;
22939;SDS011;11636;52.086;5.090;2024-02-15T09:21:16;8.60;;;4.85;;
22939;SDS011;11636;52.086;5.090;2024-02-15T09:23:50;9.93;;;5.45;;
22939;SDS011;11636;52.086;5.090;2024-02-15T09:26:23;6.75;;;4.15;;
22939;SDS011;11636;52.086;5.090;2024-02-15T09:28:50;5.93;;;3.88;;
22939;SDS011;11636;52.086;5.090;2024-02-15T09:31:23;7.82;;;4.50;;
22939;SDS011;11636;52.086;5.090;2024-02-15T09:33:51;8.98;;;4.60;;
22939;SDS011;11636;52.086;5.090;2024-02-15T09:36:25;8.40;;;4.53;;
22939;SDS011;11636;52.086;5.090;2024-02-15T09:38:54;12.23;;;5.20;;
22939;SDS011;11636;52.086;5.090;2024-02-15T09:41:28;9.13;;;4.65;;
22939;SDS011;11636;52.086;5.090;2024-02-15T09:44:01;8.77;;;4.40;;
22939;SDS011;11636;52.086;5.090;2024-02-15T09:46:38;8.00;;;3.90;;
22939;SDS011;11636;52.086;5.090;2024-02-15T09:49:11;8.25;;;4.05;;
22939;SDS011;11636;52.086;5.090;2024-02-15T09:51:45;6.47;;;3.25;;
22939;SDS011;11636;52.086;5.090;2024-02-15T09:54:14;7.25;;;4.05;;
22939;SDS011;11636;52.086;5.090;2024-02-15T09:56:55;6.07;;;3.67;;
22939;SDS011;11636;52.086;5.090;2024-02-15T09:59:33;7.00;;;3.13;;
22939;SDS011;11636;52.086;5.090;2024-02-15T10:02:02;8.18;;;4.22;;
22939;SDS011;11636;52.086;5.090;2024-02-15T10:04:39;9.45;;;4.75;;
22939;SDS011;11636;52.086;5.090;2024-02-15T10:07:16;8.77;;;4.72;;
22939;SDS011;11636;52.086;5.090;2024-02-15T10:09:51;7.80;;;4.47;;
22939;SDS011;11636;52.086;5.090;2024-02-15T10:12:18;7.03;;;4.22;;
22939;SDS011;11636;52.086;5.090;2024-02-15T10:14:53;10.05;;;4.63;;
22939;SDS011;11636;52.086;5.090;2024-02-15T10:17:20;8.32;;;4.03;;
22939;SDS011;11636;52.086;5.090;2024-02-15T10:20:02;7.40;;;3.40;;
22939;SDS011;11636;52.086;5.090;2024-02-15T10:22:31;7.68;;;3.78;;
22939;SDS011;11636;52.086;5.090;2024-02-15T10:25:10;6.60;;;2.90;;
22939;SDS011;11636;52.086;5.090;2024-02-15T10:27:39;9.57;;;3.97;;
22939;SDS011;11636;52.086;5.090;2024-02-15T10:30:22;11.30;;;4.50;;
22939;SDS011;11636;52.086;5.090;2024-02-15T10:32:57;8.02;;;3.85;;
22939;SDS011;11636;52.086;5.090;2024-02-15T10:35:25;11.98;;;4.68;;
22939;SDS011;11636;52.086;5.090;2024-02-15T10:38:05;5.88;;;3.63;;
22939;SDS011;11636;52.086;5.090;2024-02-15T10:40:44;7.65;;;3.90;;
22939;SDS011;11636;52.086;5.090;2024-02-15T10:43:13;7.28;;;3.35;;
22939;SDS011;11636;52.086;5.090;2024-02-15T10:45:49;10.13;;;4.45;;
22939;SDS011;11636;52.086;5.090;2024-02-15T10:48:18;9.43;;;4.35;;
22939;SDS011;11636;52.086;5.090;2024-02-15T10:50:52;8.88;;;4.38;;
22939;SDS011;11636;52.086;5.090;2024-02-15T10:53:30;9.43;;;3.83;;
22939;SDS011;11636;52.086;5.090;2024-02-15T10:56:10;8.63;;;4.38;;
22939;SDS011;11636;52.086;5.090;2024-02-15T10:58:50;8.98;;;4.60;;
22939;SDS011;11636;52.086;5.090;2024-02-15T11:01:49;8.15;;;4.72;;
22939;SDS011;11636;52.086;5.090;2024-02-15T11:04:28;7.85;;;4.32;;
22939;SDS011;11636;52.086;5.090;2024-02-15T11:06:59;7.05;;;4.03;;
22939;SDS011;11636;52.086;5.090;2024-02-15T11:09:34;7.47;;;4.18;;
22939;SDS011;11636;52.086;5.090;2024-02-15T11:12:02;9.70;;;5.53;;
22939;SDS011;11636;52.086;5.090;2024-02-15T11:14:36;13.00;;;6.38;;
22939;SDS011;11636;52.086;5.090;2024-02-15T11:17:03;8.90;;;5.53;;
22939;SDS011;11636;52.086;5.090;2024-02-15T11:19:40;9.27;;;5.43;;
22939;SDS011;11636;52.086;5.090;2024-02-15T11:22:23;10.43;;;6.22;;
22939;SDS011;11636;52.086;5.090;2024-02-15T11:24:56;9.55;;;5.55;;
22939;SDS011;11636;52.086;5.090;2024-02-15T11:27:29;8.07;;;5.47;;
22939;SDS011;11636;52.086;5.090;2024-02-15T11:30:05;9.65;;;5.63;;
22939;SDS011;11636;52.086;5.090;2024-02-15T11:32:42;9.27;;;5.45;;
22939;SDS011;11636;52.086;5.090;2024-02-15T11:35:21;10.10;;;4.85;;
22939;SDS011;11636;52.086;5.090;2024-02-15T11:37:58;8.60;;;4.63;;
22939;SDS011;11636;52.086;5.090;2024-02-15T11:43:07;7.78;;;4.72;;
22939;SDS011;11636;52.086;5.090;2024-02-15T11:45:41;9.18;;;5.65;;
22939;SDS011;11636;52.086;5.090;2024-02-15T11:48:08;8.23;;;5.53;;
22939;SDS011;11636;52.086;5.090;2024-02-15T11:50:40;8.77;;;5.05;;
22939;SDS011;11636;52.086;5.090;2024-02-15T11:53:14;8.27;;;5.53;;
22939;SDS011;11636;52.086;5.090;2024-02-15T11:55:49;12.30;;;6.38;;
22939;SDS011;11636;52.086;5.090;2024-02-15T11:58:25;7.00;;;5.47;;
22939;SDS011;11636;52.086;5.090;2024-02-15T12:01:14;7.57;;;4.88;;
22939;SDS011;11636;52.086;5.090;2024-02-15T12:04:07;6.65;;;4.57;;
22939;SDS011;11636;52.086;5.090;2024-02-15T12:06:59;6.28;;;4.00;;
22939;SDS011;11636;52.086;5.090;2024-02-15T12:09:57;5.85;;;3.92;;
22939;SDS011;11636;52.086;5.090;2024-02-15T12:12:53;6.75;;;5.07;;
22939;SDS011;11636;52.086;5.090;2024-02-15T12:15:58;7.97;;;5.35;;
22939;SDS011;11636;52.086;5.090;2024-02-15T12:18:44;5.90;;;4.32;;
22939;SDS011;11636;52.086;5.090;2024-02-15T12:21:22;7.15;;;5.15;;
22939;SDS011;11636;52.086;5.090;2024-02-15T12:23:51;6.57;;;4.22;;
22939;SDS011;11636;52.086;5.090;2024-02-15T12:26:25;8.88;;;5.53;;
22939;SDS011;11636;52.086;5.090;2024-02-15T12:28:54;8.68;;;5.63;;
22939;SDS011;11636;52.086;5.090;2024-02-15T12:31:22;10.68;;;5.55;;
22939;SDS011;11636;52.086;5.090;2024-02-15T12:36:41;5.25;;;3.85;;
22939;SDS011;11636;52.086;5.090;2024-02-15T12:39:08;7.05;;;4.10;;
22939;SDS011;11636;52.086;5.090;2024-02-15T12:41:49;5.40;;;3.63;;
22939;SDS011;11636;52.086;5.090;2024-02-15T12:44:23;8.07;;;4.50;;
22939;SDS011;11636;52.086;5.090;2024-02-15T12:46:53;6.20;;;3.40;;
22939;SDS011;11636;52.086;5.090;2024-02-15T12:49:32;7.82;;;3.47;;
22939;SDS011;11636;52.086;5.090;2024-02-15T12:57:52;4.97;;;2.83;;
22939;SDS011;11636;52.086;5.090;2024-02-15T13:00:30;5.88;;;3.05;;
22939;SDS011;11636;52.086;5.090;2024-02-15T13:03:01;5.68;;;2.97;;
22939;SDS011;11636;52.086;5.090;2024-02-15T13:05:38;4.78;;;2.40;;
22939;SDS011;11636;52.086;5.090;2024-02-15T13:08:06;6.43;;;3.00;;
22939;SDS011;11636;52.086;5.090;2024-02-15T13:10:45;5.45;;;2.17;;
22939;SDS011;11636;52.086;5.090;2024-02-15T13:13:19;5.03;;;2.53;;
22939;SDS011;11636;52.086;5.090;2024-02-15T13:15:47;5.82;;;2.35;;
22939;SDS011;11636;52.086;5.090;2024-02-15T13:18:20;5.30;;;2.10;;
22939;SDS011;11636;52.086;5.090;2024-02-15T13:20:48;3.65;;;1.73;;
22939;SDS011;11636;52.086;5.090;2024-02-15T13:23:28;3.85;;;1.73;;
22939;SDS011;11636;52.086;5.090;2024-02-15T13:26:03;6.07;;;3.05;;
22939;SDS011;11636;52.086;5.090;2024-02-15T13:28:30;3.80;;;1.65;;
22939;SDS011;11636;52.086;5.090;2024-02-15T13:31:04;4.03;;;2.08;;
22939;SDS011;11636;52.086;5.090;2024-02-15T13:33:39;9.05;;;2.65;;
22939;SDS011;11636;52.086;5.090;2024-02-15T13:36:07;7.45;;;2.22;;
22939;SDS011;11636;52.086;5.090;2024-02-15T13:38:43;3.78;;;1.80;;
22939;SDS011;11636;52.086;5.090;2024-02-15T13:41:10;4.43;;;2.20;;
22939;SDS011;11636;52.086;5.090;2024-02-15T13:43:37;3.95;;;2.00;;
22939;SDS011;11636;52.086;5.090;2024-02-15T13:46:13;3.10;;;1.73;;
22939;SDS011;11636;52.086;5.090;2024-02-15T13:48:41;5.20;;;1.90;;
22939;SDS011;11636;52.086;5.090;2024-02-15T13:51:16;3.75;;;1.60;;
22939;SDS011;11636;52.086;5.090;2024-02-15T13:53:43;4.57;;;1.70;;
22939;SDS011;11636;52.086;5.090;2024-02-15T13:56:16;3.97;;;1.98;;
22939;SDS011;11636;52.086;5.090;2024-02-15T13:58:43;3.63;;;1.77;;
22939;SDS011;11636;52.086;5.090;2024-02-15T14:01:10;4.07;;;2.00;;
22939;SDS011;11636;52.086;5.090;2024-02-15T14:03:46;3.50;;;1.50;;
22939;SDS011;11636;52.086;5.090;2024-02-15T14:06:20;5.45;;;1.95;;
22939;SDS011;11636;52.086;5.090;2024-02-15T14:08:47;6.47;;;2.17;;
22939;SDS011;11636;52.086;5.090;2024-02-15T14:11:14;4.80;;;1.95;;
22939;SDS011;11636;52.086;5.090;2024-02-15T14:13:47;3.17;;;1.50;;
22939;SDS011;11636;52.086;5.090;2024-02-15T14:16:14;4.15;;;1.77;;
22939;SDS011;11636;52.086;5.090;2024-02-15T14:18:49;3.75;;;1.50;;
22939;SDS011;11636;52.086;5.090;2024-02-15T14:21:17;4.20;;;1.42;;
22939;SDS011;11636;52.086;5.090;2024-02-15T14:23:51;3.85;;;1.40;;
22939;SDS011;11636;52.086;5.090;2024-02-15T14:26:18;2.60;;;1.30;;
22939;SDS011;11636;52.086;5.090;2024-02-15T14:28:48;5.35;;;1.83;;
22939;SDS011;11636;52.086;5.090;2024-02-15T14:31:22;2.65;;;1.20;;
22939;SDS011;11636;52.086;5.090;2024-02-15T14:34:14;2.60;;;1.23;;
22939;SDS011;11636;52.086;5.090;2024-02-15T14:36:42;3.40;;;1.50;;
22939;SDS011;11636;52.086;5.090;2024-02-15T14:39:09;3.22;;;1.35;;
22939;SDS011;11636;52.086;5.090;2024-02-15T14:41:43;1.95;;;0.93;;
22939;SDS011;11636;52.086;5.090;2024-02-15T14:44:15;2.15;;;0.80;;
22939;SDS011;11636;52.086;5.090;2024-02-15T14:46:48;3.17;;;1.40;;
22939;SDS011;11636;52.086;5.090;2024-02-15T14:49:15;2.78;;;1.30;;
22939;SDS011;11636;52.086;5.090;2024-02-15T14:51:49;2.65;;;1.25;;
22939;SDS011;11636;52.086;5.090;2024-02-15T14:54:17;2.47;;;1.00;;
22939;SDS011;11636;52.086;5.090;2024-02-15T14:56:49;3.75;;;1.23;;
22939;SDS011;11636;52.086;5.090;2024-02-15T14:59:22;2.17;;;0.90;;
22939;SDS011;11636;52.086;5.090;2024-02-15T15:01:55;4.32;;;1.23;;
22939;SDS011;11636;52.086;5.090;2024-02-15T15:04:28;2.72;;;1.05;;
22939;SDS011;11636;52.086;5.090;2024-02-15T15:07:07;3.20;;;1.30;;
22939;SDS011;11636;52.086;5.090;2024-02-15T15:09:59;2.22;;;1.05;;
22939;SDS011;11636;52.086;5.090;2024-02-15T15:12:51;3.70;;;1.67;;
22939;SDS011;11636;52.086;5.090;2024-02-15T15:15:18;2.33;;;0.90;;
22939;SDS011;11636;52.086;5.090;2024-02-15T15:17:51;2.72;;;1.10;;
22939;SDS011;11636;52.086;5.090;2024-02-15T15:20:19;2.58;;;1.00;;
22939;SDS011;11636;52.086;5.090;2024-02-15T15:22:52;3.00;;;1.30;;